Time;durP1;ratioP1;P1;durP2;ratioP2;P2;SDS_P1;SDS_P2;PMS_P1;PMS_P2;Temp;Humidity;BMP_temperature;BMP_pressure;BME280_temperature;BME280_humidity;BME280_pressure;Samples;Min_cycle;Max_cycle;Signal;HPM_P1;HPM_P2
2023/01/15 00:01:21;;;;;;;0.20;0.20;;;;;;;9.72;51.75;94634.47;4383783;32;20316;-65
2023/01/15 00:03:48;;;;;;;0.20;0.20;;;;;;;9.80;52.93;94625.75;4361312;32;20250;-61
2023/01/15 00:06:14;;;;;;;0.30;0.30;;;;;;;9.55;53.62;94629.88;4357076;32;20283;-61
2023/01/15 00:08:40;;;;;;;0.10;0.10;;;;;;;9.45;56.25;94614.22;4389005;32;20200;-61
2023/01/15 00:11:06;;;;;;;0.03;0.03;;;;;;;9.43;56.50;94600.50;4387334;32;20300;-61
2023/01/15 00:13:31;;;;;;;0.17;0.17;;;;;;;9.39;57.01;94602.19;4390187;32;20204;-61
2023/01/15 00:16:04;;;;;;;0.33;0.33;;;;;;;9.32;56.11;94595.78;4368144;32;20323;-61
2023/01/15 00:18:30;;;;;;;0.07;0.07;;;;;;;9.37;57.60;94580.53;4384719;32;20192;-61
2023/01/15 00:21:01;;;;;;;0.20;0.20;;;;;;;9.44;56.33;94570.31;4378809;32;20304;-61
2023/01/15 00:29:00;;;;;;;0.10;0.10;;;;;;;9.36;56.29;94563.09;4350092;32;20346;-61
2023/01/15 00:31:26;;;;;;;0.00;0.00;;;;;;;9.42;56.00;94572.47;4355193;32;20392;-63
2023/01/15 00:33:51;;;;;;;0.20;0.20;;;;;;;9.40;57.62;94569.34;4390174;32;20215;-61
2023/01/15 00:36:17;;;;;;;1.60;0.40;;;;;;;9.35;56.16;94566.06;4386835;32;20288;-61
2023/01/15 00:38:42;;;;;;;0.20;0.20;;;;;;;9.30;56.61;94556.38;4388585;32;20275;-61
2023/01/15 00:41:07;;;;;;;0.00;0.00;;;;;;;9.24;55.85;94561.00;4395774;32;20192;-61
2023/01/15 00:43:33;;;;;;;0.10;0.10;;;;;;;9.21;57.33;94560.84;4376183;32;20223;-61
2023/01/15 00:45:58;;;;;;;0.67;0.20;;;;;;;9.30;56.67;94553.72;4389895;32;20243;-61
2023/01/15 00:48:23;;;;;;;0.00;0.00;;;;;;;9.33;57.28;94550.47;4372699;32;20211;-62
2023/01/15 00:50:49;;;;;;;0.07;0.07;;;;;;;9.34;56.48;94549.41;4377614;32;20177;-61
2023/01/15 00:53:14;;;;;;;0.23;0.10;;;;;;;9.37;57.61;94548.75;4375100;32;20306;-61
2023/01/15 00:55:40;;;;;;;0.37;0.30;;;;;;;9.44;56.69;94548.34;4356081;32;20231;-61
2023/01/15 00:58:05;;;;;;;0.10;0.10;;;;;;;9.27;56.17;94556.97;4353715;32;20278;-61
2023/01/15 01:00:30;;;;;;;0.10;0.10;;;;;;;9.16;57.26;94551.16;4355380;32;20232;-61
2023/01/15 01:02:56;;;;;;;0.00;0.00;;;;;;;9.21;58.64;94556.31;4356179;32;20232;-60
2023/01/15 01:05:21;;;;;;;0.37;0.10;;;;;;;9.15;59.97;94554.88;4373780;32;20192;-61
2023/01/15 01:07:47;;;;;;;0.20;0.20;;;;;;;9.21;60.96;94539.66;4393287;32;20216;-60
2023/01/15 01:10:12;;;;;;;0.07;0.07;;;;;;;9.23;59.87;94550.72;4389571;32;20263;-61
2023/01/15 01:12:37;;;;;;;0.10;0.10;;;;;;;9.21;59.64;94544.94;4384778;32;20184;-60
2023/01/15 01:15:03;;;;;;;0.93;0.27;;;;;;;9.07;59.03;94552.19;4358770;32;20261;-61
2023/01/15 01:17:29;;;;;;;0.10;0.10;;;;;;;9.21;58.60;94542.31;4354407;32;20238;-60
2023/01/15 01:19:54;;;;;;;0.20;0.20;;;;;;;9.20;59.21;94543.37;4347552;32;20285;-60
2023/01/15 01:22:19;;;;;;;0.17;0.10;;;;;;;9.22;61.09;94526.13;4346084;32;20224;-61
2023/01/15 01:24:45;;;;;;;1.43;0.27;;;;;;;9.22;59.31;94525.34;4350686;32;20236;-61
2023/01/15 01:27:10;;;;;;;0.00;0.00;;;;;;;9.13;58.55;94527.19;4354850;32;20312;-60
2023/01/15 01:29:36;;;;;;;0.20;0.20;;;;;;;9.32;57.70;94546.28;4352106;32;20188;-60
2023/01/15 01:32:01;;;;;;;0.00;0.00;;;;;;;9.44;58.10;94537.75;4359405;32;20192;-60
2023/01/15 01:34:26;;;;;;;0.00;0.00;;;;;;;9.32;59.99;94530.41;4384733;32;20205;-61
2023/01/15 01:36:52;;;;;;;0.00;0.00;;;;;;;9.21;58.66;94513.19;4380059;32;20206;-60
2023/01/15 01:39:18;;;;;;;0.10;0.10;;;;;;;9.06;59.51;94514.38;4381777;32;20214;-61
2023/01/15 01:41:45;;;;;;;0.20;0.13;;;;;;;9.18;59.88;94511.16;4339140;32;20292;-60
2023/01/15 01:44:36;;;;;;;0.33;0.33;;;;;;;9.04;61.02;94503.31;4345049;32;20343;-60
2023/01/15 01:47:06;;;;;;;0.67;0.47;;;;;;;9.02;60.33;94489.59;4354886;32;20331;-61
2023/01/15 01:49:33;;;;;;;0.10;0.10;;;;;;;8.88;61.14;94495.00;4344443;32;20386;-60
2023/01/15 01:52:07;;;;;;;0.10;0.10;;;;;;;8.87;61.99;94472.28;4374310;32;20288;-60
2023/01/15 01:54:34;;;;;;;0.10;0.10;;;;;;;8.87;61.97;94466.19;4389540;32;20291;-61
2023/01/15 01:57:00;;;;;;;0.00;0.00;;;;;;;8.94;62.33;94462.00;4389318;32;20314;-60
2023/01/15 01:59:26;;;;;;;0.23;0.23;;;;;;;9.02;62.21;94470.31;4365124;32;20292;-60
2023/01/15 02:01:52;;;;;;;0.10;0.10;;;;;;;8.84;63.13;94457.00;4350061;32;20240;-60
2023/01/15 02:04:20;;;;;;;0.00;0.00;;;;;;;8.67;63.96;94448.97;4357190;32;20225;-60
2023/01/15 02:06:46;;;;;;;0.20;0.20;;;;;;;8.59;64.39;94434.63;4384905;32;20297;-60
2023/01/15 02:09:11;;;;;;;0.20;0.20;;;;;;;8.63;64.39;94436.66;4378145;32;20296;-61
2023/01/15 02:11:37;;;;;;;0.53;0.10;;;;;;;8.56;65.32;94435.22;4389134;32;20240;-60
2023/01/15 02:14:14;;;;;;;0.10;0.10;;;;;;;8.80;64.64;94428.81;4386237;32;20180;-61
2023/01/15 02:16:55;;;;;;;0.10;0.10;;;;;;;8.80;64.55;94426.16;4338998;32;20357;-61
2023/01/15 02:19:38;;;;;;;0.00;0.00;;;;;;;8.76;64.84;94423.34;4352021;32;20291;-61
2023/01/15 02:22:25;;;;;;;0.00;0.00;;;;;;;8.79;64.25;94422.75;4370790;32;20346;-61
2023/01/15 02:25:04;;;;;;;0.00;0.00;;;;;;;8.95;64.30;94412.53;4387788;32;20268;-60
2023/01/15 02:27:30;;;;;;;0.10;0.10;;;;;;;8.80;64.60;94411.09;4388670;32;20355;-61
2023/01/15 02:30:05;;;;;;;0.13;0.13;;;;;;;8.81;64.89;94410.00;4369095;32;20328;-60
2023/01/15 02:32:51;;;;;;;0.10;0.10;;;;;;;8.81;65.60;94412.66;4338448;32;20228;-60
2023/01/15 02:35:38;;;;;;;0.00;0.00;;;;;;;8.87;65.26;94403.50;4346588;32;20331;-61
2023/01/15 02:38:10;;;;;;;0.13;0.13;;;;;;;8.87;65.73;94403.50;4381450;32;20314;-61
2023/01/15 02:40:36;;;;;;;0.10;0.10;;;;;;;8.92;65.18;94399.97;4373438;32;20284;-60
2023/01/15 02:43:04;;;;;;;0.10;0.10;;;;;;;9.04;64.72;94399.37;4393967;32;20283;-61
2023/01/15 02:45:32;;;;;;;0.00;0.00;;;;;;;8.91;65.49;94401.03;4394067;32;20292;-61
2023/01/15 02:48:04;;;;;;;0.00;0.00;;;;;;;8.90;65.65;94389.69;4371680;32;20283;-61
2023/01/15 02:50:36;;;;;;;0.17;0.17;;;;;;;8.89;66.16;94389.97;4372225;32;20284;-61
2023/01/15 02:53:07;;;;;;;0.10;0.10;;;;;;;8.90;66.12;94402.91;4388576;32;20275;-61
2023/01/15 02:55:38;;;;;;;0.10;0.10;;;;;;;8.91;65.90;94401.81;4388247;32;20299;-61
2023/01/15 02:58:06;;;;;;;0.10;0.10;;;;;;;9.05;65.92;94390.34;4355897;32;20446;-61
2023/01/15 03:00:38;;;;;;;0.00;0.00;;;;;;;8.94;66.26;94381.88;4346967;32;20453;-61
2023/01/15 03:03:20;;;;;;;0.40;0.40;;;;;;;8.65;67.46;94390.34;4359032;32;20355;-61
2023/01/15 03:06:09;;;;;;;0.00;0.00;;;;;;;8.70;67.73;94368.28;4380577;32;20306;-61
2023/01/15 03:08:35;;;;;;;0.37;0.20;;;;;;;8.61;68.82;94381.44;4380445;32;20380;-61
2023/01/15 03:11:08;;;;;;;0.10;0.10;;;;;;;8.80;68.39;94371.41;4388367;32;20285;-61
2023/01/15 03:13:51;;;;;;;0.30;0.30;;;;;;;8.67;68.81;94367.03;4386615;32;20208;-62
2023/01/15 03:16:37;;;;;;;0.03;0.03;;;;;;;8.87;68.15;94355.13;4364617;32;20347;-61
2023/01/15 03:19:12;;;;;;;0.33;0.33;;;;;;;8.97;67.75;94360.13;4387768;32;20296;-61
2023/01/15 03:22:05;;;;;;;0.10;0.10;;;;;;;9.07;67.77;94354.56;4374300;32;20390;-61
2023/01/15 03:24:37;;;;;;;0.07;0.07;;;;;;;9.04;67.97;94351.75;4358459;32;20293;-62
2023/01/15 03:27:03;;;;;;;0.00;0.00;;;;;;;8.93;68.65;94343.31;4393448;32;20195;-61
2023/01/15 03:29:32;;;;;;;0.00;0.00;;;;;;;8.87;70.14;94337.37;4390128;32;20337;-61
2023/01/15 03:31:59;;;;;;;0.13;0.13;;;;;;;9.01;70.01;94339.13;4379078;32;20192;-61
2023/01/15 03:34:32;;;;;;;0.00;0.00;;;;;;;9.05;70.82;94334.78;4367003;32;20314;-61
2023/01/15 03:36:58;;;;;;;0.20;0.20;;;;;;;9.14;71.09;94327.66;4393868;32;20306;-61
2023/01/15 03:39:23;;;;;;;0.00;0.00;;;;;;;9.23;70.73;94346.97;4380275;32;20310;-61
2023/01/15 03:42:27;;;;;;;0.10;0.10;;;;;;;9.17;71.80;94334.97;4385244;32;20207;-61
2023/01/15 03:45:22;;;;;;;0.10;0.10;;;;;;;8.69;73.22;94327.84;4345284;32;20300;-61
2023/01/15 03:47:56;;;;;;;0.10;0.03;;;;;;;8.65;73.52;94321.59;4366268;32;20281;-61
2023/01/15 03:50:48;;;;;;;0.90;0.20;;;;;;;8.74;73.41;94319.75;4377743;32;20296;-61
2023/01/15 03:53:41;;;;;;;0.00;0.00;;;;;;;8.76;73.58;94328.16;4386775;32;22452;-61
2023/01/15 03:56:42;;;;;;;0.00;0.00;;;;;;;8.69;73.54;94322.56;4377226;32;20299;-61
2023/01/15 03:59:15;;;;;;;0.33;0.10;;;;;;;8.86;73.64;94322.59;4339852;32;20349;-61
2023/01/15 04:01:43;;;;;;;0.00;0.00;;;;;;;8.93;72.51;94312.38;4369479;32;20276;-60
2023/01/15 04:04:12;;;;;;;0.27;0.27;;;;;;;8.88;72.87;94314.37;4377769;32;20300;-61
2023/01/15 04:06:40;;;;;;;0.20;0.20;;;;;;;8.81;72.65;94301.59;4365836;32;20370;-61
2023/01/15 04:09:09;;;;;;;0.00;0.00;;;;;;;8.85;72.95;94304.41;4383131;32;20315;-61
2023/01/15 04:11:35;;;;;;;0.00;0.00;;;;;;;9.02;72.09;94291.22;4353013;32;20339;-61
2023/01/15 04:14:00;;;;;;;0.00;0.00;;;;;;;8.89;72.57;94297.41;4352468;32;20303;-61
2023/01/15 04:16:31;;;;;;;0.17;0.17;;;;;;;8.89;72.10;94298.19;4350944;32;20180;-61
2023/01/15 04:18:56;;;;;;;0.17;0.17;;;;;;;8.98;72.39;94300.06;4388498;32;20207;-61
2023/01/15 04:21:22;;;;;;;0.10;0.10;;;;;;;8.87;72.32;94297.72;4378764;32;20285;-61
2023/01/15 04:23:47;;;;;;;0.00;0.00;;;;;;;8.84;72.24;94294.91;4337445;32;20297;-61
2023/01/15 04:26:14;;;;;;;0.20;0.20;;;;;;;8.83;71.93;94304.72;4364998;32;20251;-61
2023/01/15 04:28:39;;;;;;;0.07;0.07;;;;;;;8.92;72.38;94300.22;4393039;32;20188;-61
2023/01/15 04:31:05;;;;;;;0.00;0.00;;;;;;;8.97;71.68;94296.62;4394829;32;20292;-61
2023/01/15 04:33:31;;;;;;;0.00;0.00;;;;;;;8.95;71.70;94294.31;4374259;32;20203;-61
2023/01/15 04:36:00;;;;;;;0.00;0.00;;;;;;;9.03;71.18;94284.06;4381130;32;20236;-62
2023/01/15 04:38:26;;;;;;;0.10;0.10;;;;;;;9.05;70.66;94295.09;4356955;32;20228;-61
2023/01/15 04:46:23;;;;;;;0.00;0.00;;;;;;;8.95;71.63;94272.38;4393158;32;20298;-61
2023/01/15 04:48:49;;;;;;;0.10;0.07;;;;;;;8.97;71.49;94267.53;4372181;32;20333;-61
2023/01/15 04:51:14;;;;;;;0.03;0.03;;;;;;;9.08;70.90;94262.75;4388875;32;20275;-61
2023/01/15 04:53:39;;;;;;;0.40;0.40;;;;;;;9.08;71.60;94254.81;4361784;32;20235;-61
2023/01/15 04:56:06;;;;;;;0.20;0.20;;;;;;;9.07;71.04;94258.56;4361194;32;20212;-61
2023/01/15 04:58:32;;;;;;;0.37;0.37;;;;;;;8.91;71.45;94255.56;4375645;32;20233;-61
2023/01/15 05:00:59;;;;;;;0.00;0.00;;;;;;;8.89;71.29;94255.88;4376399;32;20386;-62
2023/01/15 05:03:28;;;;;;;0.53;0.37;;;;;;;8.90;71.75;94264.59;4388328;32;20363;-61
2023/01/15 05:05:53;;;;;;;0.20;0.20;;;;;;;9.06;71.17;94264.94;4379829;32;20350;-61
2023/01/15 05:08:19;;;;;;;0.50;0.30;;;;;;;9.04;71.08;94261.81;4360777;32;20324;-62
2023/01/15 05:10:46;;;;;;;0.73;0.43;;;;;;;9.10;71.46;94264.00;4354922;32;20265;-61
2023/01/15 05:13:11;;;;;;;0.20;0.20;;;;;;;9.06;71.91;94257.78;4351850;32;20224;-61
2023/01/15 05:15:39;;;;;;;0.00;0.00;;;;;;;9.06;72.06;94257.00;4359639;32;20293;-61
2023/01/15 05:18:05;;;;;;;0.00;0.00;;;;;;;9.10;71.33;94263.22;4354348;32;20232;-61
2023/01/15 05:20:30;;;;;;;0.00;0.00;;;;;;;9.14;71.51;94264.16;4348211;32;20324;-61
2023/01/15 05:22:55;;;;;;;0.20;0.20;;;;;;;8.95;72.32;94272.38;4348971;32;20233;-61
2023/01/15 05:25:22;;;;;;;0.37;0.37;;;;;;;9.13;71.77;94268.69;4372674;32;20235;-62
2023/01/15 05:27:47;;;;;;;0.20;0.20;;;;;;;9.10;72.00;94287.03;4350469;32;20236;-62
2023/01/15 05:30:13;;;;;;;0.00;0.00;;;;;;;9.22;71.36;94281.91;4346804;32;20336;-61
2023/01/15 05:32:38;;;;;;;0.20;0.20;;;;;;;9.23;71.64;94278.16;4335491;32;20225;-61
2023/01/15 05:35:04;;;;;;;0.17;0.17;;;;;;;9.10;72.99;94274.59;4331395;32;20260;-61
2023/01/15 05:37:30;;;;;;;0.20;0.20;;;;;;;9.06;71.56;94264.94;4345959;32;20297;-61
2023/01/15 05:39:55;;;;;;;0.60;0.20;;;;;;;9.22;71.50;94260.72;4371041;32;20197;-62
2023/01/15 05:42:20;;;;;;;0.70;0.33;;;;;;;9.28;70.06;94260.28;4373277;32;20231;-61
2023/01/15 05:44:46;;;;;;;0.00;0.00;;;;;;;9.27;69.34;94257.94;4367383;32;20204;-61
2023/01/15 05:47:11;;;;;;;0.00;0.00;;;;;;;9.37;69.59;94246.25;4346033;32;20200;-61
2023/01/15 05:49:37;;;;;;;0.20;0.20;;;;;;;9.46;68.47;94242.53;4362986;32;20216;-61
2023/01/15 05:52:03;;;;;;;0.17;0.17;;;;;;;9.50;68.67;94234.75;4365367;32;20219;-61
2023/01/15 05:54:33;;;;;;;0.03;0.03;;;;;;;9.30;70.04;94242.22;4353064;32;20205;-61
2023/01/15 05:57:00;;;;;;;0.00;0.00;;;;;;;9.50;69.22;94250.62;4345419;32;20239;-61
2023/01/15 05:59:27;;;;;;;0.20;0.20;;;;;;;9.54;69.17;94251.56;4354242;32;20311;-64
2023/01/15 06:01:53;;;;;;;0.00;0.00;;;;;;;9.70;68.04;94255.28;4375346;32;20188;-61
2023/01/15 06:04:20;;;;;;;0.10;0.10;;;;;;;9.74;68.59;94255.44;4366528;32;20211;-61
2023/01/15 06:06:48;;;;;;;0.23;0.23;;;;;;;9.73;69.48;94259.19;4365110;32;20322;-61
2023/01/15 06:09:14;;;;;;;0.00;0.00;;;;;;;9.83;68.56;94248.25;4364124;32;20236;-61
2023/01/15 06:11:40;;;;;;;0.00;0.00;;;;;;;9.83;70.20;94248.25;4330557;32;20228;-61
2023/01/15 06:14:06;;;;;;;0.40;0.30;;;;;;;9.97;69.71;94240.91;4372987;32;20236;-61
2023/01/15 06:16:32;;;;;;;0.00;0.00;;;;;;;10.13;69.05;94246.47;4388682;32;20204;-61
2023/01/15 06:19:02;;;;;;;0.00;0.00;;;;;;;10.19;68.82;94237.25;4372193;32;20246;-61
2023/01/15 06:21:28;;;;;;;0.30;0.00;;;;;;;10.20;69.11;94242.25;4379051;32;20296;-61
2023/01/15 06:23:53;;;;;;;0.00;0.00;;;;;;;10.33;68.69;94235.97;4375973;32;20338;-61
2023/01/15 06:26:19;;;;;;;0.03;0.03;;;;;;;10.27;69.48;94239.91;4351995;32;20246;-61
2023/01/15 06:28:45;;;;;;;0.00;0.00;;;;;;;10.27;69.56;94247.84;4376964;32;22183;-61
2023/01/15 06:31:14;;;;;;;0.00;0.00;;;;;;;10.30;69.30;94244.56;4373738;32;20207;-61
2023/01/15 06:33:39;;;;;;;0.07;0.07;;;;;;;10.34;69.80;94234.09;4370662;32;20268;-61
2023/01/15 06:36:10;;;;;;;0.00;0.00;;;;;;;10.48;69.70;94253.22;4357386;32;20220;-60
2023/01/15 06:38:35;;;;;;;0.00;0.00;;;;;;;10.66;70.22;94246.75;4373628;32;20228;-61
2023/01/15 06:41:03;;;;;;;0.00;0.00;;;;;;;10.81;70.64;94245.41;4358273;32;20227;-61
2023/01/15 06:49:00;;;;;;;0.00;0.00;;;;;;;11.35;71.24;94240.22;4347375;32;20253;-61
2023/01/15 06:51:25;;;;;;;0.00;0.00;;;;;;;11.49;69.53;94242.59;4362610;32;20240;-64
2023/01/15 06:53:50;;;;;;;0.00;0.00;;;;;;;11.51;69.57;94249.16;4384490;32;20207;-61
2023/01/15 06:56:16;;;;;;;0.00;0.00;;;;;;;11.47;69.89;94244.81;4377324;32;20186;-61
2023/01/15 06:58:42;;;;;;;0.00;0.00;;;;;;;11.55;69.90;94254.59;4374544;32;20200;-61
2023/01/15 07:01:12;;;;;;;0.00;0.00;;;;;;;11.50;70.16;94255.56;4382785;32;20227;-61
2023/01/15 07:03:38;;;;;;;0.00;0.00;;;;;;;11.59;69.94;94247.53;4349029;32;20268;-61
2023/01/15 07:06:08;;;;;;;0.00;0.00;;;;;;;11.50;70.66;94234.31;4368861;32;20233;-61
2023/01/15 07:08:34;;;;;;;0.00;0.00;;;;;;;11.56;70.43;94246.31;4384893;32;20247;-61
2023/01/15 07:11:07;;;;;;;0.00;0.00;;;;;;;11.63;69.95;94233.28;4368145;32;20196;-60
2023/01/15 07:13:33;;;;;;;0.00;0.00;;;;;;;11.64;70.15;94234.81;4360090;32;20193;-60
2023/01/15 07:16:00;;;;;;;0.00;0.00;;;;;;;11.60;70.62;94233.94;4359450;32;20203;-60
2023/01/15 07:18:28;;;;;;;0.00;0.00;;;;;;;11.71;70.23;94245.69;4377299;32;20192;-62
2023/01/15 07:20:56;;;;;;;0.00;0.00;;;;;;;11.65;69.91;94241.69;4382195;32;20242;-61
2023/01/15 07:23:23;;;;;;;0.27;0.27;;;;;;;11.69;70.31;94244.47;4392758;32;20192;-61
2023/01/15 07:25:49;;;;;;;0.00;0.00;;;;;;;11.69;69.82;94225.88;4370565;32;20274;-60
2023/01/15 07:28:14;;;;;;;0.10;0.10;;;;;;;11.78;69.65;94220.50;4369953;32;20238;-61
2023/01/15 07:30:39;;;;;;;0.00;0.00;;;;;;;11.66;70.61;94237.91;4369421;32;20189;-61
2023/01/15 07:33:04;;;;;;;0.00;0.00;;;;;;;11.85;70.53;94234.03;4384134;32;20228;-60
2023/01/15 07:35:30;;;;;;;0.00;0.00;;;;;;;11.70;70.38;94233.50;4375528;32;20188;-60
2023/01/15 07:37:55;;;;;;;0.10;0.10;;;;;;;11.68;70.42;94240.25;4361388;32;20232;-60
2023/01/15 07:40:20;;;;;;;0.00;0.00;;;;;;;11.76;70.48;94234.13;4342777;32;20283;-61
2023/01/15 07:51:09;;;;;;;0.00;0.00;;;;;;;11.79;70.96;94256.63;4395452;32;20199;-61
2023/01/15 07:53:35;;;;;;;0.00;0.00;;;;;;;11.86;70.21;94251.53;4369209;32;20224;-61
2023/01/15 07:56:01;;;;;;;0.00;0.00;;;;;;;11.87;70.46;94253.84;4370503;32;20196;-60
2023/01/15 07:58:26;;;;;;;0.27;0.27;;;;;;;11.90;70.64;94252.44;4381317;32;20215;-61
2023/01/15 08:00:52;;;;;;;0.00;0.00;;;;;;;11.87;71.29;94247.75;4363550;32;20192;-61
2023/01/15 08:03:17;;;;;;;0.00;0.00;;;;;;;11.85;71.16;94244.66;4368654;32;20231;-60
2023/01/15 08:05:42;;;;;;;0.00;0.00;;;;;;;11.89;70.63;94241.03;4386181;32;20181;-61
2023/01/15 08:08:14;;;;;;;0.00;0.00;;;;;;;11.88;71.30;94251.97;4373941;32;20189;-61
2023/01/15 08:15:11;;;;;;;0.00;0.00;;;;;;;11.93;71.55;94247.25;4348784;32;20237;-61
2023/01/15 08:16:10;;;;;;;0.00;0.00;;;;;;;11.90;71.44;94241.81;4356544;32;20234;-61
2023/01/15 08:18:35;;;;;;;0.00;0.00;;;;;;;11.97;71.76;94231.41;4374830;32;20247;-60
2023/01/15 08:21:01;;;;;;;0.00;0.00;;;;;;;12.02;71.00;94242.62;4357594;32;20211;-60
2023/01/15 08:23:26;;;;;;;0.00;0.00;;;;;;;12.07;70.61;94246.94;4366500;32;20586;-61
2023/01/15 08:25:51;;;;;;;0.00;0.00;;;;;;;11.95;71.33;94242.38;4356425;32;20228;-61
2023/01/15 08:28:17;;;;;;;0.00;0.00;;;;;;;11.87;71.67;94245.87;4340357;32;20196;-61
2023/01/15 08:30:42;;;;;;;0.00;0.00;;;;;;;11.97;71.11;94236.75;4380502;32;20192;-61
2023/01/15 08:33:07;;;;;;;0.00;0.00;;;;;;;12.03;71.25;94246.06;4375601;32;20298;-61
2023/01/15 08:35:33;;;;;;;1.30;0.20;;;;;;;12.02;71.05;94242.62;4375507;32;20212;-60
2023/01/15 08:38:03;;;;;;;0.00;0.00;;;;;;;12.05;71.25;94239.28;4357924;32;20197;-61
2023/01/15 08:40:28;;;;;;;0.20;0.20;;;;;;;12.07;71.21;94238.97;4340004;32;20228;-61
2023/01/15 08:42:54;;;;;;;0.10;0.10;;;;;;;12.02;71.52;94229.34;4372865;32;20199;-61
2023/01/15 08:45:19;;;;;;;0.10;0.10;;;;;;;11.96;71.84;94232.53;4377323;32;20237;-61
2023/01/15 08:47:44;;;;;;;0.00;0.00;;;;;;;11.96;71.62;94233.31;4378102;32;20251;-61
2023/01/15 08:50:10;;;;;;;0.10;0.10;;;;;;;12.08;71.04;94231.75;4368165;32;20294;-61
2023/01/15 08:52:37;;;;;;;0.00;0.00;;;;;;;12.02;71.33;94217.94;4355335;32;20288;-61
2023/01/15 08:55:02;;;;;;;0.03;0.03;;;;;;;12.05;70.57;94202.06;4364212;32;20189;-61
2023/01/15 08:57:27;;;;;;;0.10;0.10;;;;;;;11.99;71.42;94213.28;4362631;32;20228;-61
2023/01/15 08:59:53;;;;;;;0.00;0.00;;;;;;;12.06;69.96;94202.84;4373669;32;20197;-61
2023/01/15 09:02:18;;;;;;;0.20;0.20;;;;;;;12.08;70.34;94203.31;4362702;32;20232;-61
2023/01/15 09:04:44;;;;;;;0.00;0.00;;;;;;;12.13;69.88;94192.47;4345334;32;20236;-61
2023/01/15 09:07:10;;;;;;;0.00;0.00;;;;;;;12.22;69.54;94184.41;4340272;32;20251;-61
2023/01/15 09:09:35;;;;;;;0.10;0.10;;;;;;;12.27;68.05;94187.59;4342186;32;20306;-61
2023/01/15 09:12:00;;;;;;;0.00;0.00;;;;;;;12.28;68.02;94183.06;4353433;32;20189;-61
2023/01/15 09:14:26;;;;;;;0.00;0.00;;;;;;;12.24;68.50;94174.97;4375178;32;20256;-64
2023/01/15 09:16:51;;;;;;;0.00;0.00;;;;;;;12.21;68.50;94188.94;4373678;32;20242;-61
2023/01/15 09:19:16;;;;;;;1.30;0.27;;;;;;;12.34;67.24;94177.19;4375090;32;20238;-61
2023/01/15 09:21:42;;;;;;;0.00;0.00;;;;;;;12.34;66.60;94179.06;4360415;32;20299;-61
2023/01/15 09:24:08;;;;;;;0.27;0.27;;;;;;;12.45;66.22;94166.12;4333870;32;20278;-61
2023/01/15 09:26:36;;;;;;;0.00;0.00;;;;;;;12.45;65.99;94166.91;4336063;32;20236;-60
2023/01/15 09:29:02;;;;;;;0.00;0.00;;;;;;;12.44;65.99;94151.28;4363957;32;20209;-60
2023/01/15 09:31:28;;;;;;;0.10;0.10;;;;;;;12.38;65.92;94143.50;4365679;32;20193;-61
2023/01/15 09:33:54;;;;;;;0.23;0.23;;;;;;;12.57;64.74;94136.84;4374837;32;20260;-60
2023/01/15 09:36:22;;;;;;;0.00;0.00;;;;;;;12.53;64.25;94120.00;4361084;32;20238;-61
2023/01/15 09:38:50;;;;;;;0.00;0.00;;;;;;;12.61;63.90;94127.88;4333473;32;20236;-62
2023/01/15 09:44:31;;;;;;;1.57;1.10;;;;;;;12.66;62.33;94132.97;4354069;32;20271;-49
2023/01/15 09:47:19;;;;;;;0.10;0.10;;;;;;;13.30;71.97;94115.38;4346969;32;20197;-51
2023/01/15 09:50:10;;;;;;;0.30;0.30;;;;;;;13.64;61.64;94119.31;4353414;32;20406;-47
2023/01/15 09:52:35;;;;;;;8.40;0.87;;;;;;;14.04;67.50;94117.28;4339919;32;20337;-44
2023/01/15 09:55:13;;;;;;;0.73;0.20;;;;;;;14.23;68.99;94119.25;4343921;32;20193;-47
2023/01/15 09:57:40;;;;;;;0.50;0.20;;;;;;;14.35;60.35;94127.16;4375133;32;20184;-44
2023/01/15 10:00:11;;;;;;;0.10;0.10;;;;;;;14.42;60.94;94127.34;4364671;32;20201;-50
2023/01/15 10:02:41;;;;;;;0.20;0.20;;;;;;;14.56;64.19;94145.56;4358166;32;20184;-45
2023/01/15 10:05:16;;;;;;;1.30;0.67;;;;;;;14.57;59.39;94143.69;4339561;32;20284;-50
2023/01/15 10:08:02;;;;;;;0.00;0.00;;;;;;;14.62;60.19;94162.09;4350861;32;20185;-47
2023/01/15 10:10:33;;;;;;;0.20;0.20;;;;;;;14.77;57.02;94170.06;4374960;32;20227;-45
2023/01/15 10:13:20;;;;;;;0.00;0.00;;;;;;;14.81;57.12;94180.06;4372121;32;20250;-48
2023/01/15 10:15:46;;;;;;;0.20;0.20;;;;;;;14.93;60.24;94204.00;4388483;32;20279;-45
2023/01/15 10:18:21;;;;;;;0.30;0.30;;;;;;;14.91;59.47;94271.13;4352276;32;20243;-44
2023/01/15 10:21:12;;;;;;;0.00;0.00;;;;;;;14.50;60.34;94309.78;4373500;32;20283;-44
2023/01/15 10:24:08;;;;;;;0.20;0.20;;;;;;;14.42;60.49;94348.84;4359633;32;20188;-43
2023/01/15 10:26:33;;;;;;;0.00;0.00;;;;;;;13.58;61.45;94355.97;4360662;32;20208;-46
2023/01/15 10:29:10;;;;;;;0.17;0.17;;;;;;;13.32;62.44;94374.97;4381516;32;20206;-45
2023/01/15 10:31:38;;;;;;;0.10;0.10;;;;;;;13.22;62.49;94388.72;4360188;32;20238;-45
2023/01/15 10:34:28;;;;;;;0.00;0.00;;;;;;;13.27;62.42;94398.41;4381768;32;20192;-47
2023/01/15 10:37:07;;;;;;;0.07;0.07;;;;;;;13.11;62.54;94397.44;4382751;32;20192;-47
2023/01/15 10:39:48;;;;;;;0.03;0.03;;;;;;;12.84;63.52;94396.22;4376566;32;20201;-45
2023/01/15 10:42:26;;;;;;;0.00;0.00;;;;;;;12.53;61.88;94423.25;4351734;32;20216;-49
2023/01/15 10:45:21;;;;;;;0.00;0.00;;;;;;;12.71;62.96;94424.66;4350169;32;20276;-45
2023/01/15 10:47:53;;;;;;;0.00;0.00;;;;;;;12.62;62.58;94426.62;4298254;32;20372;-58
2023/01/15 10:50:22;;;;;;;0.00;0.00;;;;;;;11.51;63.45;94405.06;4359054;32;20185;-59
2023/01/15 10:53:08;;;;;;;0.00;0.00;;;;;;;10.25;68.44;94409.06;4369800;32;20234;-61
2023/01/15 10:55:43;;;;;;;0.10;0.10;;;;;;;9.32;72.67;94407.88;4371579;32;20188;-58
2023/01/15 10:58:26;;;;;;;0.10;0.10;;;;;;;8.91;74.03;94416.91;4385797;32;20206;-59
2023/01/15 11:00:59;;;;;;;0.00;0.00;;;;;;;8.65;76.67;94411.47;4367371;32;20292;-58
2023/01/15 11:03:37;;;;;;;0.00;0.00;;;;;;;8.50;77.44;94409.22;4368812;32;20280;-59
2023/01/15 11:06:03;;;;;;;0.00;0.00;;;;;;;8.59;77.79;94428.53;4377712;32;20284;-58
2023/01/15 11:08:30;;;;;;;0.00;0.00;;;;;;;8.48;78.35;94424.59;4379132;32;20289;-58
2023/01/15 11:11:00;;;;;;;0.20;0.20;;;;;;;8.23;78.08;94432.03;4372815;32;20327;-59
2023/01/15 11:21:52;;;;;;;0.20;0.20;;;;;;;8.09;79.01;94428.66;4378173;32;20318;-59
2023/01/15 11:24:19;;;;;;;0.10;0.10;;;;;;;8.05;80.00;94414.50;4347706;32;20352;-59
2023/01/15 11:26:50;;;;;;;0.00;0.00;;;;;;;8.26;81.81;94420.84;4348933;32;20320;-59
2023/01/15 11:29:28;;;;;;;0.00;0.00;;;;;;;8.30;79.80;94436.13;4349355;32;20288;-58
2023/01/15 11:31:53;;;;;;;0.23;0.23;;;;;;;8.42;79.36;94447.72;4386740;32;20295;-59
2023/01/15 11:34:21;;;;;;;0.10;0.10;;;;;;;8.51;79.80;94463.66;4374374;32;20281;-59
2023/01/15 11:36:47;;;;;;;0.00;0.00;;;;;;;8.36;79.59;94462.13;4376361;32;21521;-59
2023/01/15 11:39:27;;;;;;;0.00;0.00;;;;;;;8.21;79.14;94465.88;4373436;32;20399;-59
2023/01/15 11:53:07;;;;;;;0.00;0.00;;;;;;;8.17;81.72;94506.41;4370146;32;20287;-60
2023/01/15 11:55:33;;;;;;;0.00;0.00;;;;;;;8.08;82.82;94524.84;4370510;32;20280;-59
2023/01/15 11:58:00;;;;;;;0.20;0.20;;;;;;;8.01;84.32;94532.38;4336622;32;20367;-59
2023/01/15 12:00:30;;;;;;;0.00;0.00;;;;;;;8.05;83.77;94543.91;4354142;32;20203;-59
2023/01/15 12:03:14;;;;;;;0.00;0.00;;;;;;;7.83;83.62;94539.34;4351221;32;20374;-59
2023/01/15 12:05:45;;;;;;;0.03;0.03;;;;;;;7.80;84.94;94549.69;4377543;32;20277;-59
2023/01/15 12:08:27;;;;;;;0.10;0.10;;;;;;;7.79;85.35;94556.84;4374452;32;20323;-60
2023/01/15 12:11:12;;;;;;;0.10;0.10;;;;;;;8.02;84.56;94562.97;4367110;32;20280;-59
2023/01/15 12:13:38;;;;;;;0.10;0.10;;;;;;;7.78;85.17;94583.53;4383018;32;20325;-60
2023/01/15 12:16:26;;;;;;;0.00;0.00;;;;;;;7.87;85.44;94592.34;4378772;32;20288;-59
2023/01/15 12:18:59;;;;;;;0.00;0.00;;;;;;;8.09;84.53;94597.72;4389239;32;20225;-59
2023/01/15 12:21:55;;;;;;;0.10;0.10;;;;;;;8.04;84.42;94597.03;4348432;32;20377;-58
2023/01/15 12:24:38;;;;;;;0.13;0.13;;;;;;;8.05;83.86;94603.88;4348285;32;20336;-59
2023/01/15 12:27:23;;;;;;;0.00;0.00;;;;;;;7.99;84.57;94612.97;4341023;32;20336;-59
2023/01/15 12:30:11;;;;;;;0.40;0.17;;;;;;;7.88;82.94;94612.37;4364775;32;20280;-57
2023/01/15 12:32:41;;;;;;;0.10;0.10;;;;;;;7.62;84.31;94621.84;4341886;32;20375;-58
2023/01/15 12:35:20;;;;;;;0.00;0.00;;;;;;;7.78;83.97;94623.91;4384426;32;20285;-57
2023/01/15 12:37:51;;;;;;;0.00;0.00;;;;;;;7.68;84.76;94625.97;4388034;32;20325;-58
2023/01/15 12:40:36;;;;;;;1.23;0.27;;;;;;;7.68;84.67;94626.75;4327376;32;20345;-58
2023/01/15 12:45:50;;;;;;;0.10;0.10;;;;;;;7.47;86.25;94620.28;4387948;32;20316;-58